Aérodrome :
LOGIN :

S'inscrire | Disclaimer

   EN    FR    IT 

 










Légende :    VFR   VFR Marginal   IFR   IFR Intensif   IFR Très Intensif
Visi : 
Plafond : 
>= 8 km
>= 3000ft
5 à 8 km
1000 à 3000 ft
1500m à 5 km
500 à 1000 ft
800 à 1500m
200 à 500 ft
< 800m
< 200 ft
Symboles :   Orages  Brouillard  Fortes neiges  Fortes précipitations  Vent > 20 kt
SIGMETs :   Divers  Orages  Givrage  Turbulence  Onde Orograph.  Cendres Volcan.






- Altitude de l'aérodrome : 1043 ft
- Code IATA : SLD


LZSL - Sliac

DERNIER METAR :
  • 050100Z /////KT CAVOK 01/M04 Q1028

METARs EXPIRÉS :
  • 050030Z /////KT CAVOK 02/M04 Q1028
  • 050000Z /////KT CAVOK 03/M04 Q1027
  • 042330Z 07003KT 010V100 CAVOK 04/M04 Q1027
  • 042300Z 06003KT 010V130 CAVOK 04/M04 Q1027
  • 042230Z VRB02KT CAVOK 05/M04 Q1027

TAF TAF LZSL
Valide du 05 à 00h jusqu'au 05 à 09h UTC


042300Z 0500/0509 07005KT CAVOK



MET'MAP, la Météo Aéronautique d'un coup d'oeil ! - Copyright ORBIFLY Décembre 2007 - Disclaimer

ORBIFLY MET'MAP TEAM :

Programmation & Développement : Alexandra Zaïnal
Sur une idée originale de : Baudouin d'Aumeries
Assistance à la programmation : Marc-Olivier Méhu
Soutien technique & logistique : Manuel Goepfert

Contact : metmap@orbifly.com




SOURCES & CREDITS :

   NOAA